sensor_id;sensor_type;location;lat;lon;timestamp;P1;durP1;ratioP1;P2;durP2;ratioP2
15295;SDS011;7749;49.964;7.890;2023-12-28T00:00:36;16.43;;;12.67;;
15295;SDS011;7749;49.964;7.890;2023-12-28T00:03:03;9.07;;;8.13;;
15295;SDS011;7749;49.964;7.890;2023-12-28T00:05:31;8.37;;;7.50;;
15295;SDS011;7749;49.964;7.890;2023-12-28T00:07:58;11.43;;;9.27;;
15295;SDS011;7749;49.964;7.890;2023-12-28T00:10:27;10.03;;;8.67;;
15295;SDS011;7749;49.964;7.890;2023-12-28T00:12:54;11.57;;;8.90;;
15295;SDS011;7749;49.964;7.890;2023-12-28T00:15:22;12.17;;;8.97;;
15295;SDS011;7749;49.964;7.890;2023-12-28T00:17:50;15.30;;;9.33;;
15295;SDS011;7749;49.964;7.890;2023-12-28T00:20:17;20.93;;;15.17;;
15295;SDS011;7749;49.964;7.890;2023-12-28T00:22:45;13.43;;;11.03;;
15295;SDS011;7749;49.964;7.890;2023-12-28T00:25:12;9.73;;;8.57;;
15295;SDS011;7749;49.964;7.890;2023-12-28T00:27:40;10.67;;;8.43;;
15295;SDS011;7749;49.964;7.890;2023-12-28T00:30:09;11.67;;;8.47;;
15295;SDS011;7749;49.964;7.890;2023-12-28T00:32:36;13.37;;;8.27;;
15295;SDS011;7749;49.964;7.890;2023-12-28T00:35:04;10.23;;;7.90;;
15295;SDS011;7749;49.964;7.890;2023-12-28T00:37:32;9.67;;;7.10;;
15295;SDS011;7749;49.964;7.890;2023-12-28T00:39:59;8.90;;;6.93;;
15295;SDS011;7749;49.964;7.890;2023-12-28T00:42:27;10.47;;;7.90;;
15295;SDS011;7749;49.964;7.890;2023-12-28T00:44:54;11.67;;;8.30;;
15295;SDS011;7749;49.964;7.890;2023-12-28T00:47:22;8.47;;;7.03;;
15295;SDS011;7749;49.964;7.890;2023-12-28T00:49:49;10.67;;;7.57;;
15295;SDS011;7749;49.964;7.890;2023-12-28T00:52:17;8.57;;;7.13;;
15295;SDS011;7749;49.964;7.890;2023-12-28T00:54:44;10.77;;;8.03;;
15295;SDS011;7749;49.964;7.890;2023-12-28T00:57:11;9.63;;;7.40;;
15295;SDS011;7749;49.964;7.890;2023-12-28T00:59:39;13.93;;;10.87;;
15295;SDS011;7749;49.964;7.890;2023-12-28T01:02:06;12.93;;;9.60;;
15295;SDS011;7749;49.964;7.890;2023-12-28T01:04:34;12.37;;;10.13;;
15295;SDS011;7749;49.964;7.890;2023-12-28T01:07:01;11.20;;;9.13;;
15295;SDS011;7749;49.964;7.890;2023-12-28T01:09:31;11.50;;;9.33;;
15295;SDS011;7749;49.964;7.890;2023-12-28T01:12:02;10.83;;;8.90;;
15295;SDS011;7749;49.964;7.890;2023-12-28T01:14:29;13.03;;;10.53;;
15295;SDS011;7749;49.964;7.890;2023-12-28T01:16:56;31.93;;;25.80;;
15295;SDS011;7749;49.964;7.890;2023-12-28T01:19:24;32.27;;;26.63;;
15295;SDS011;7749;49.964;7.890;2023-12-28T01:21:51;22.83;;;20.30;;
15295;SDS011;7749;49.964;7.890;2023-12-28T01:24:19;15.00;;;13.20;;
15295;SDS011;7749;49.964;7.890;2023-12-28T01:26:46;8.77;;;7.30;;
15295;SDS011;7749;49.964;7.890;2023-12-28T01:29:14;12.77;;;10.23;;
15295;SDS011;7749;49.964;7.890;2023-12-28T01:31:41;11.37;;;8.87;;
15295;SDS011;7749;49.964;7.890;2023-12-28T01:34:09;9.93;;;6.63;;
15295;SDS011;7749;49.964;7.890;2023-12-28T01:36:36;13.20;;;9.77;;
15295;SDS011;7749;49.964;7.890;2023-12-28T01:39:09;14.00;;;10.10;;
15295;SDS011;7749;49.964;7.890;2023-12-28T01:41:40;15.47;;;12.10;;
15295;SDS011;7749;49.964;7.890;2023-12-28T01:44:07;7.87;;;6.70;;
15295;SDS011;7749;49.964;7.890;2023-12-28T01:46:34;11.10;;;8.50;;
15295;SDS011;7749;49.964;7.890;2023-12-28T01:49:03;8.63;;;5.40;;
15295;SDS011;7749;49.964;7.890;2023-12-28T01:51:31;7.50;;;4.87;;
15295;SDS011;7749;49.964;7.890;2023-12-28T01:54:00;7.60;;;4.87;;
15295;SDS011;7749;49.964;7.890;2023-12-28T01:56:28;7.10;;;4.50;;
15295;SDS011;7749;49.964;7.890;2023-12-28T01:58:56;6.83;;;5.30;;
15295;SDS011;7749;49.964;7.890;2023-12-28T02:01:23;6.60;;;4.70;;
15295;SDS011;7749;49.964;7.890;2023-12-28T02:03:53;6.57;;;4.70;;
15295;SDS011;7749;49.964;7.890;2023-12-28T02:06:22;6.63;;;4.70;;
15295;SDS011;7749;49.964;7.890;2023-12-28T02:08:51;6.30;;;4.87;;
15295;SDS011;7749;49.964;7.890;2023-12-28T02:11:18;4.87;;;4.37;;
15295;SDS011;7749;49.964;7.890;2023-12-28T02:13:46;5.90;;;4.57;;
15295;SDS011;7749;49.964;7.890;2023-12-28T02:16:25;6.13;;;4.47;;
15295;SDS011;7749;49.964;7.890;2023-12-28T02:19:10;6.17;;;4.47;;
15295;SDS011;7749;49.964;7.890;2023-12-28T02:21:46;8.07;;;4.60;;
15295;SDS011;7749;49.964;7.890;2023-12-28T02:24:15;5.57;;;4.33;;
15295;SDS011;7749;49.964;7.890;2023-12-28T02:26:42;5.17;;;4.23;;
15295;SDS011;7749;49.964;7.890;2023-12-28T02:29:10;6.37;;;4.23;;
15295;SDS011;7749;49.964;7.890;2023-12-28T02:31:42;9.83;;;6.60;;
15295;SDS011;7749;49.964;7.890;2023-12-28T02:34:19;11.30;;;6.37;;
15295;SDS011;7749;49.964;7.890;2023-12-28T02:36:54;6.03;;;5.37;;
15295;SDS011;7749;49.964;7.890;2023-12-28T02:39:23;7.30;;;5.33;;
15295;SDS011;7749;49.964;7.890;2023-12-28T02:41:52;9.83;;;7.10;;
15295;SDS011;7749;49.964;7.890;2023-12-28T02:44:22;5.67;;;4.17;;
15295;SDS011;7749;49.964;7.890;2023-12-28T02:46:49;6.70;;;4.80;;
15295;SDS011;7749;49.964;7.890;2023-12-28T02:49:16;4.67;;;4.10;;
15295;SDS011;7749;49.964;7.890;2023-12-28T02:51:44;3.90;;;3.50;;
15295;SDS011;7749;49.964;7.890;2023-12-28T02:54:11;6.53;;;3.97;;
15295;SDS011;7749;49.964;7.890;2023-12-28T02:56:39;5.13;;;3.50;;
15295;SDS011;7749;49.964;7.890;2023-12-28T02:59:08;5.80;;;3.97;;
15295;SDS011;7749;49.964;7.890;2023-12-28T03:01:35;4.17;;;3.37;;
15295;SDS011;7749;49.964;7.890;2023-12-28T03:04:02;5.17;;;3.73;;
15295;SDS011;7749;49.964;7.890;2023-12-28T03:06:30;5.77;;;3.87;;
15295;SDS011;7749;49.964;7.890;2023-12-28T03:08:57;4.63;;;3.30;;
15295;SDS011;7749;49.964;7.890;2023-12-28T03:11:25;3.73;;;3.30;;
15295;SDS011;7749;49.964;7.890;2023-12-28T03:13:52;4.10;;;3.43;;
15295;SDS011;7749;49.964;7.890;2023-12-28T03:16:19;4.43;;;3.40;;
15295;SDS011;7749;49.964;7.890;2023-12-28T03:18:47;3.30;;;3.00;;
15295;SDS011;7749;49.964;7.890;2023-12-28T03:21:14;3.67;;;3.10;;
15295;SDS011;7749;49.964;7.890;2023-12-28T03:23:42;4.87;;;3.07;;
15295;SDS011;7749;49.964;7.890;2023-12-28T03:26:09;5.17;;;3.73;;
15295;SDS011;7749;49.964;7.890;2023-12-28T03:28:37;3.83;;;3.43;;
15295;SDS011;7749;49.964;7.890;2023-12-28T03:31:04;5.17;;;4.37;;
15295;SDS011;7749;49.964;7.890;2023-12-28T03:33:31;4.23;;;3.83;;
15295;SDS011;7749;49.964;7.890;2023-12-28T03:35:59;4.37;;;3.87;;
15295;SDS011;7749;49.964;7.890;2023-12-28T03:38:27;4.17;;;3.77;;
15295;SDS011;7749;49.964;7.890;2023-12-28T03:40:54;4.47;;;4.03;;
15295;SDS011;7749;49.964;7.890;2023-12-28T03:43:22;5.40;;;3.77;;
15295;SDS011;7749;49.964;7.890;2023-12-28T03:45:49;6.73;;;4.13;;
15295;SDS011;7749;49.964;7.890;2023-12-28T03:48:17;4.17;;;3.60;;
15295;SDS011;7749;49.964;7.890;2023-12-28T03:50:45;5.87;;;4.40;;
15295;SDS011;7749;49.964;7.890;2023-12-28T03:53:12;4.63;;;4.10;;
15295;SDS011;7749;49.964;7.890;2023-12-28T03:55:39;6.57;;;4.47;;
15295;SDS011;7749;49.964;7.890;2023-12-28T03:58:07;5.03;;;4.20;;
15295;SDS011;7749;49.964;7.890;2023-12-28T04:00:35;5.63;;;4.40;;
15295;SDS011;7749;49.964;7.890;2023-12-28T04:03:03;6.50;;;4.93;;
15295;SDS011;7749;49.964;7.890;2023-12-28T04:05:31;7.57;;;4.63;;
15295;SDS011;7749;49.964;7.890;2023-12-28T04:07:58;5.50;;;4.30;;
15295;SDS011;7749;49.964;7.890;2023-12-28T04:10:31;4.53;;;4.13;;
15295;SDS011;7749;49.964;7.890;2023-12-28T04:12:59;6.23;;;4.43;;
15295;SDS011;7749;49.964;7.890;2023-12-28T04:15:27;5.63;;;4.70;;
15295;SDS011;7749;49.964;7.890;2023-12-28T04:17:54;7.80;;;4.40;;
15295;SDS011;7749;49.964;7.890;2023-12-28T04:20:23;5.50;;;4.50;;
15295;SDS011;7749;49.964;7.890;2023-12-28T04:22:50;4.63;;;4.00;;
15295;SDS011;7749;49.964;7.890;2023-12-28T04:25:18;6.33;;;4.80;;
15295;SDS011;7749;49.964;7.890;2023-12-28T04:27:45;6.23;;;4.87;;
15295;SDS011;7749;49.964;7.890;2023-12-28T04:30:12;7.50;;;4.90;;
15295;SDS011;7749;49.964;7.890;2023-12-28T04:32:40;6.47;;;4.57;;
15295;SDS011;7749;49.964;7.890;2023-12-28T04:35:08;5.83;;;4.50;;
15295;SDS011;7749;49.964;7.890;2023-12-28T04:37:35;5.80;;;4.80;;
15295;SDS011;7749;49.964;7.890;2023-12-28T04:40:03;5.63;;;4.40;;
15295;SDS011;7749;49.964;7.890;2023-12-28T04:42:31;5.40;;;4.50;;
15295;SDS011;7749;49.964;7.890;2023-12-28T04:44:58;7.20;;;5.50;;
15295;SDS011;7749;49.964;7.890;2023-12-28T04:47:26;5.63;;;4.90;;
15295;SDS011;7749;49.964;7.890;2023-12-28T04:49:53;5.20;;;4.67;;
15295;SDS011;7749;49.964;7.890;2023-12-28T04:52:21;7.53;;;5.30;;
15295;SDS011;7749;49.964;7.890;2023-12-28T04:54:48;6.20;;;4.87;;
15295;SDS011;7749;49.964;7.890;2023-12-28T04:57:16;6.23;;;5.17;;
15295;SDS011;7749;49.964;7.890;2023-12-28T04:59:43;4.53;;;4.10;;
15295;SDS011;7749;49.964;7.890;2023-12-28T05:02:11;5.50;;;4.80;;
15295;SDS011;7749;49.964;7.890;2023-12-28T05:04:39;5.10;;;4.60;;
15295;SDS011;7749;49.964;7.890;2023-12-28T05:07:06;5.17;;;4.67;;
15295;SDS011;7749;49.964;7.890;2023-12-28T05:09:34;8.40;;;5.07;;
15295;SDS011;7749;49.964;7.890;2023-12-28T05:12:02;5.43;;;4.90;;
15295;SDS011;7749;49.964;7.890;2023-12-28T05:14:29;6.23;;;5.20;;
15295;SDS011;7749;49.964;7.890;2023-12-28T05:16:57;5.13;;;4.63;;
15295;SDS011;7749;49.964;7.890;2023-12-28T05:19:24;5.63;;;5.03;;
15295;SDS011;7749;49.964;7.890;2023-12-28T05:21:51;6.10;;;4.63;;
15295;SDS011;7749;49.964;7.890;2023-12-28T05:24:19;4.80;;;4.30;;
15295;SDS011;7749;49.964;7.890;2023-12-28T05:26:46;7.10;;;4.93;;
15295;SDS011;7749;49.964;7.890;2023-12-28T05:29:14;6.97;;;4.90;;
15295;SDS011;7749;49.964;7.890;2023-12-28T05:31:41;5.53;;;4.53;;
15295;SDS011;7749;49.964;7.890;2023-12-28T05:34:09;5.33;;;4.37;;
15295;SDS011;7749;49.964;7.890;2023-12-28T05:36:37;5.10;;;4.60;;
15295;SDS011;7749;49.964;7.890;2023-12-28T05:39:05;5.13;;;4.57;;
15295;SDS011;7749;49.964;7.890;2023-12-28T05:41:32;5.50;;;4.57;;
15295;SDS011;7749;49.964;7.890;2023-12-28T05:43:59;4.90;;;4.50;;
15295;SDS011;7749;49.964;7.890;2023-12-28T05:46:27;5.20;;;4.70;;
15295;SDS011;7749;49.964;7.890;2023-12-28T05:48:54;4.63;;;4.23;;
15295;SDS011;7749;49.964;7.890;2023-12-28T05:51:22;5.87;;;4.47;;
15295;SDS011;7749;49.964;7.890;2023-12-28T05:53:49;5.17;;;4.67;;
15295;SDS011;7749;49.964;7.890;2023-12-28T05:56:17;5.03;;;4.50;;
15295;SDS011;7749;49.964;7.890;2023-12-28T05:58:44;4.90;;;4.40;;
15295;SDS011;7749;49.964;7.890;2023-12-28T06:01:11;4.80;;;4.20;;
15295;SDS011;7749;49.964;7.890;2023-12-28T06:03:39;4.40;;;4.00;;
15295;SDS011;7749;49.964;7.890;2023-12-28T06:06:06;5.47;;;4.90;;
15295;SDS011;7749;49.964;7.890;2023-12-28T06:08:34;5.27;;;4.77;;
15295;SDS011;7749;49.964;7.890;2023-12-28T06:11:01;7.20;;;5.50;;
15295;SDS011;7749;49.964;7.890;2023-12-28T06:13:29;29.37;;;22.23;;
15295;SDS011;7749;49.964;7.890;2023-12-28T06:15:56;6.93;;;6.17;;
15295;SDS011;7749;49.964;7.890;2023-12-28T06:18:24;6.30;;;4.67;;
15295;SDS011;7749;49.964;7.890;2023-12-28T06:20:51;5.97;;;5.37;;
15295;SDS011;7749;49.964;7.890;2023-12-28T06:23:19;6.57;;;4.70;;
15295;SDS011;7749;49.964;7.890;2023-12-28T06:25:46;7.87;;;4.90;;
15295;SDS011;7749;49.964;7.890;2023-12-28T06:28:14;6.70;;;5.53;;
15295;SDS011;7749;49.964;7.890;2023-12-28T06:30:41;6.27;;;5.07;;
15295;SDS011;7749;49.964;7.890;2023-12-28T06:33:09;8.37;;;6.00;;
15295;SDS011;7749;49.964;7.890;2023-12-28T06:35:36;7.40;;;5.90;;
15295;SDS011;7749;49.964;7.890;2023-12-28T06:38:03;6.97;;;5.63;;
15295;SDS011;7749;49.964;7.890;2023-12-28T06:40:31;5.63;;;5.07;;
15295;SDS011;7749;49.964;7.890;2023-12-28T06:42:59;8.30;;;6.80;;
15295;SDS011;7749;49.964;7.890;2023-12-28T06:45:26;8.43;;;5.93;;
15295;SDS011;7749;49.964;7.890;2023-12-28T06:47:55;8.03;;;6.23;;
15295;SDS011;7749;49.964;7.890;2023-12-28T06:50:23;5.57;;;4.73;;
15295;SDS011;7749;49.964;7.890;2023-12-28T06:52:50;6.10;;;4.93;;
15295;SDS011;7749;49.964;7.890;2023-12-28T06:55:18;6.70;;;4.90;;
15295;SDS011;7749;49.964;7.890;2023-12-28T06:57:45;5.17;;;4.67;;
15295;SDS011;7749;49.964;7.890;2023-12-28T07:00:13;5.47;;;4.97;;
15295;SDS011;7749;49.964;7.890;2023-12-28T07:02:40;4.80;;;4.30;;
15295;SDS011;7749;49.964;7.890;2023-12-28T07:05:08;5.73;;;4.77;;
15295;SDS011;7749;49.964;7.890;2023-12-28T07:07:35;5.03;;;4.37;;
15295;SDS011;7749;49.964;7.890;2023-12-28T07:10:04;4.50;;;4.10;;
15295;SDS011;7749;49.964;7.890;2023-12-28T07:12:31;4.67;;;4.27;;
15295;SDS011;7749;49.964;7.890;2023-12-28T07:14:59;5.67;;;4.60;;
15295;SDS011;7749;49.964;7.890;2023-12-28T07:17:26;4.90;;;4.20;;
15295;SDS011;7749;49.964;7.890;2023-12-28T07:19:54;5.17;;;3.90;;
15295;SDS011;7749;49.964;7.890;2023-12-28T07:22:22;7.13;;;4.30;;
15295;SDS011;7749;49.964;7.890;2023-12-28T07:24:50;4.43;;;4.03;;
15295;SDS011;7749;49.964;7.890;2023-12-28T07:27:17;6.13;;;4.00;;
15295;SDS011;7749;49.964;7.890;2023-12-28T07:29:44;4.03;;;3.63;;
15295;SDS011;7749;49.964;7.890;2023-12-28T07:32:12;4.30;;;3.90;;
15295;SDS011;7749;49.964;7.890;2023-12-28T07:34:40;5.43;;;3.80;;
15295;SDS011;7749;49.964;7.890;2023-12-28T07:37:08;5.13;;;3.83;;
15295;SDS011;7749;49.964;7.890;2023-12-28T07:39:36;4.87;;;3.80;;
15295;SDS011;7749;49.964;7.890;2023-12-28T07:42:03;4.40;;;4.00;;
15295;SDS011;7749;49.964;7.890;2023-12-28T07:44:31;4.83;;;4.03;;
15295;SDS011;7749;49.964;7.890;2023-12-28T07:46:58;5.17;;;3.93;;
15295;SDS011;7749;49.964;7.890;2023-12-28T07:49:25;3.83;;;3.53;;
15295;SDS011;7749;49.964;7.890;2023-12-28T07:51:53;3.87;;;3.57;;
15295;SDS011;7749;49.964;7.890;2023-12-28T07:54:20;5.63;;;3.83;;
15295;SDS011;7749;49.964;7.890;2023-12-28T07:56:48;5.30;;;3.80;;
15295;SDS011;7749;49.964;7.890;2023-12-28T07:59:15;4.67;;;4.00;;
15295;SDS011;7749;49.964;7.890;2023-12-28T08:01:43;4.77;;;4.27;;
15295;SDS011;7749;49.964;7.890;2023-12-28T08:04:10;5.60;;;4.23;;
15295;SDS011;7749;49.964;7.890;2023-12-28T08:06:37;4.77;;;3.87;;
15295;SDS011;7749;49.964;7.890;2023-12-28T08:09:05;6.93;;;4.77;;
15295;SDS011;7749;49.964;7.890;2023-12-28T08:11:32;6.60;;;6.00;;
15295;SDS011;7749;49.964;7.890;2023-12-28T08:14:00;6.70;;;4.70;;
15295;SDS011;7749;49.964;7.890;2023-12-28T08:16:28;4.63;;;3.90;;
15295;SDS011;7749;49.964;7.890;2023-12-28T08:18:56;5.97;;;4.20;;
15295;SDS011;7749;49.964;7.890;2023-12-28T08:21:23;5.67;;;5.10;;
15295;SDS011;7749;49.964;7.890;2023-12-28T08:23:50;4.23;;;3.83;;
15295;SDS011;7749;49.964;7.890;2023-12-28T08:26:18;5.47;;;4.00;;
15295;SDS011;7749;49.964;7.890;2023-12-28T08:28:46;5.43;;;3.90;;
15295;SDS011;7749;49.964;7.890;2023-12-28T08:31:13;6.23;;;4.40;;
15295;SDS011;7749;49.964;7.890;2023-12-28T08:33:41;6.63;;;4.63;;
15295;SDS011;7749;49.964;7.890;2023-12-28T08:36:09;4.37;;;3.93;;
15295;SDS011;7749;49.964;7.890;2023-12-28T08:38:38;5.80;;;4.27;;
15295;SDS011;7749;49.964;7.890;2023-12-28T08:41:05;5.83;;;4.37;;
15295;SDS011;7749;49.964;7.890;2023-12-28T08:43:36;6.40;;;3.77;;
15295;SDS011;7749;49.964;7.890;2023-12-28T08:46:03;5.50;;;3.87;;
15295;SDS011;7749;49.964;7.890;2023-12-28T08:48:34;6.53;;;3.87;;
15295;SDS011;7749;49.964;7.890;2023-12-28T08:51:01;8.33;;;3.90;;
15295;SDS011;7749;49.964;7.890;2023-12-28T08:53:29;4.43;;;3.50;;
15295;SDS011;7749;49.964;7.890;2023-12-28T08:55:56;4.67;;;4.03;;
15295;SDS011;7749;49.964;7.890;2023-12-28T08:58:23;8.03;;;4.00;;
15295;SDS011;7749;49.964;7.890;2023-12-28T09:00:51;5.33;;;3.73;;
15295;SDS011;7749;49.964;7.890;2023-12-28T09:03:18;8.40;;;3.67;;
15295;SDS011;7749;49.964;7.890;2023-12-28T09:05:50;5.23;;;3.80;;
15295;SDS011;7749;49.964;7.890;2023-12-28T09:08:17;6.10;;;3.80;;
15295;SDS011;7749;49.964;7.890;2023-12-28T09:10:44;6.77;;;4.37;;
15295;SDS011;7749;49.964;7.890;2023-12-28T09:13:15;6.80;;;3.80;;
15295;SDS011;7749;49.964;7.890;2023-12-28T09:15:43;4.97;;;3.50;;
15295;SDS011;7749;49.964;7.890;2023-12-28T09:18:11;3.97;;;3.33;;
15295;SDS011;7749;49.964;7.890;2023-12-28T09:20:38;4.77;;;3.70;;
15295;SDS011;7749;49.964;7.890;2023-12-28T09:23:06;3.83;;;3.30;;
15295;SDS011;7749;49.964;7.890;2023-12-28T09:25:36;4.47;;;3.37;;
15295;SDS011;7749;49.964;7.890;2023-12-28T09:28:05;5.43;;;3.60;;
15295;SDS011;7749;49.964;7.890;2023-12-28T09:30:32;5.60;;;3.40;;
15295;SDS011;7749;49.964;7.890;2023-12-28T09:33:00;4.13;;;3.40;;
15295;SDS011;7749;49.964;7.890;2023-12-28T09:35:28;6.30;;;3.20;;
15295;SDS011;7749;49.964;7.890;2023-12-28T09:37:56;7.17;;;3.80;;
15295;SDS011;7749;49.964;7.890;2023-12-28T09:40:24;5.47;;;3.63;;
15295;SDS011;7749;49.964;7.890;2023-12-28T09:42:53;4.60;;;3.30;;
15295;SDS011;7749;49.964;7.890;2023-12-28T09:45:31;4.27;;;3.30;;
15295;SDS011;7749;49.964;7.890;2023-12-28T09:47:58;6.93;;;3.70;;
15295;SDS011;7749;49.964;7.890;2023-12-28T09:50:26;7.87;;;3.57;;
15295;SDS011;7749;49.964;7.890;2023-12-28T09:52:54;3.57;;;3.20;;
15295;SDS011;7749;49.964;7.890;2023-12-28T09:55:22;4.13;;;3.03;;
15295;SDS011;7749;49.964;7.890;2023-12-28T09:57:51;4.63;;;3.30;;
15295;SDS011;7749;49.964;7.890;2023-12-28T10:00:19;5.40;;;3.10;;
15295;SDS011;7749;49.964;7.890;2023-12-28T10:02:46;6.97;;;4.40;;
15295;SDS011;7749;49.964;7.890;2023-12-28T10:05:14;5.33;;;3.50;;
15295;SDS011;7749;49.964;7.890;2023-12-28T10:07:45;5.67;;;3.43;;
15295;SDS011;7749;49.964;7.890;2023-12-28T10:10:17;3.93;;;3.10;;
15295;SDS011;7749;49.964;7.890;2023-12-28T10:12:46;4.77;;;3.00;;
15295;SDS011;7749;49.964;7.890;2023-12-28T10:15:14;6.53;;;3.13;;
15295;SDS011;7749;49.964;7.890;2023-12-28T10:17:41;7.23;;;3.97;;
15295;SDS011;7749;49.964;7.890;2023-12-28T10:20:09;4.10;;;3.43;;
15295;SDS011;7749;49.964;7.890;2023-12-28T10:22:37;6.57;;;3.17;;
15295;SDS011;7749;49.964;7.890;2023-12-28T10:25:04;4.57;;;3.07;;
15295;SDS011;7749;49.964;7.890;2023-12-28T10:27:32;6.97;;;3.40;;
15295;SDS011;7749;49.964;7.890;2023-12-28T10:30:03;4.60;;;3.40;;
15295;SDS011;7749;49.964;7.890;2023-12-28T10:32:32;6.53;;;2.70;;
15295;SDS011;7749;49.964;7.890;2023-12-28T10:35:00;3.53;;;2.67;;
15295;SDS011;7749;49.964;7.890;2023-12-28T10:37:28;4.70;;;2.60;;
15295;SDS011;7749;49.964;7.890;2023-12-28T10:39:59;4.50;;;2.60;;
15295;SDS011;7749;49.964;7.890;2023-12-28T10:42:34;3.43;;;2.20;;
15295;SDS011;7749;49.964;7.890;2023-12-28T10:45:07;4.00;;;2.50;;
15295;SDS011;7749;49.964;7.890;2023-12-28T10:47:37;4.27;;;2.50;;
15295;SDS011;7749;49.964;7.890;2023-12-28T10:50:10;3.90;;;2.50;;
15295;SDS011;7749;49.964;7.890;2023-12-28T10:52:42;2.70;;;2.07;;
15295;SDS011;7749;49.964;7.890;2023-12-28T10:55:31;3.47;;;2.00;;
15295;SDS011;7749;49.964;7.890;2023-12-28T10:58:10;7.97;;;2.33;;
15295;SDS011;7749;49.964;7.890;2023-12-28T11:00:44;3.20;;;2.10;;
15295;SDS011;7749;49.964;7.890;2023-12-28T11:03:18;2.87;;;1.70;;
15295;SDS011;7749;49.964;7.890;2023-12-28T11:05:52;4.90;;;2.43;;
15295;SDS011;7749;49.964;7.890;2023-12-28T11:08:20;5.23;;;2.37;;
15295;SDS011;7749;49.964;7.890;2023-12-28T11:10:49;3.57;;;1.90;;
15295;SDS011;7749;49.964;7.890;2023-12-28T11:13:19;3.40;;;2.07;;
15295;SDS011;7749;49.964;7.890;2023-12-28T11:15:48;4.67;;;2.20;;
15295;SDS011;7749;49.964;7.890;2023-12-28T11:18:17;2.57;;;1.80;;
15295;SDS011;7749;49.964;7.890;2023-12-28T11:20:48;4.43;;;2.20;;
15295;SDS011;7749;49.964;7.890;2023-12-28T11:23:17;2.13;;;1.80;;
15295;SDS011;7749;49.964;7.890;2023-12-28T11:25:44;2.70;;;2.03;;
15295;SDS011;7749;49.964;7.890;2023-12-28T11:28:12;3.13;;;2.23;;
15295;SDS011;7749;49.964;7.890;2023-12-28T11:30:41;5.83;;;1.90;;
15295;SDS011;7749;49.964;7.890;2023-12-28T11:33:10;4.37;;;3.03;;
15295;SDS011;7749;49.964;7.890;2023-12-28T11:35:38;3.13;;;1.97;;
15295;SDS011;7749;49.964;7.890;2023-12-28T11:38:08;3.73;;;2.00;;
15295;SDS011;7749;49.964;7.890;2023-12-28T11:40:45;3.23;;;2.10;;
15295;SDS011;7749;49.964;7.890;2023-12-28T11:43:18;3.70;;;2.20;;
15295;SDS011;7749;49.964;7.890;2023-12-28T11:45:47;3.33;;;1.70;;
15295;SDS011;7749;49.964;7.890;2023-12-28T11:48:22;3.23;;;1.90;;
15295;SDS011;7749;49.964;7.890;2023-12-28T11:50:54;2.40;;;1.30;;
15295;SDS011;7749;49.964;7.890;2023-12-28T11:53:25;2.50;;;1.50;;
15295;SDS011;7749;49.964;7.890;2023-12-28T11:55:59;4.33;;;1.90;;
15295;SDS011;7749;49.964;7.890;2023-12-28T11:58:30;2.67;;;1.80;;
15295;SDS011;7749;49.964;7.890;2023-12-28T12:00:59;3.43;;;1.57;;
15295;SDS011;7749;49.964;7.890;2023-12-28T12:03:27;3.93;;;1.43;;
15295;SDS011;7749;49.964;7.890;2023-12-28T12:05:55;2.17;;;1.27;;
15295;SDS011;7749;49.964;7.890;2023-12-28T12:08:24;3.63;;;1.60;;
15295;SDS011;7749;49.964;7.890;2023-12-28T12:11:04;4.30;;;1.67;;
15295;SDS011;7749;49.964;7.890;2023-12-28T12:13:32;3.33;;;1.40;;
15295;SDS011;7749;49.964;7.890;2023-12-28T12:16:01;4.03;;;1.60;;
15295;SDS011;7749;49.964;7.890;2023-12-28T12:18:33;3.80;;;1.83;;
15295;SDS011;7749;49.964;7.890;2023-12-28T12:21:02;3.13;;;1.90;;
15295;SDS011;7749;49.964;7.890;2023-12-28T12:23:30;4.00;;;2.40;;
15295;SDS011;7749;49.964;7.890;2023-12-28T12:25:57;4.50;;;2.47;;
15295;SDS011;7749;49.964;7.890;2023-12-28T12:28:25;2.53;;;1.80;;
15295;SDS011;7749;49.964;7.890;2023-12-28T12:30:55;4.77;;;2.30;;
15295;SDS011;7749;49.964;7.890;2023-12-28T12:33:23;5.30;;;2.40;;
15295;SDS011;7749;49.964;7.890;2023-12-28T12:35:53;5.23;;;2.40;;
15295;SDS011;7749;49.964;7.890;2023-12-28T12:38:21;4.43;;;2.80;;
15295;SDS011;7749;49.964;7.890;2023-12-28T12:40:52;7.00;;;3.10;;
15295;SDS011;7749;49.964;7.890;2023-12-28T12:43:20;4.30;;;2.80;;
15295;SDS011;7749;49.964;7.890;2023-12-28T12:45:48;8.53;;;4.60;;
15295;SDS011;7749;49.964;7.890;2023-12-28T12:48:16;4.87;;;3.10;;
15295;SDS011;7749;49.964;7.890;2023-12-28T12:50:44;6.47;;;2.97;;
15295;SDS011;7749;49.964;7.890;2023-12-28T12:53:11;5.70;;;2.70;;
15295;SDS011;7749;49.964;7.890;2023-12-28T12:55:39;4.80;;;3.03;;
15295;SDS011;7749;49.964;7.890;2023-12-28T12:58:12;5.70;;;2.60;;
15295;SDS011;7749;49.964;7.890;2023-12-28T13:00:40;3.03;;;2.67;;
15295;SDS011;7749;49.964;7.890;2023-12-28T13:03:08;2.93;;;2.47;;
15295;SDS011;7749;49.964;7.890;2023-12-28T13:05:38;4.30;;;2.50;;
15295;SDS011;7749;49.964;7.890;2023-12-28T13:08:06;3.47;;;2.40;;
15295;SDS011;7749;49.964;7.890;2023-12-28T13:10:33;4.07;;;2.97;;
15295;SDS011;7749;49.964;7.890;2023-12-28T13:13:01;4.23;;;3.07;;
15295;SDS011;7749;49.964;7.890;2023-12-28T13:15:29;3.63;;;2.67;;
15295;SDS011;7749;49.964;7.890;2023-12-28T13:17:56;5.00;;;3.30;;
15295;SDS011;7749;49.964;7.890;2023-12-28T13:20:24;5.03;;;2.80;;
15295;SDS011;7749;49.964;7.890;2023-12-28T13:22:51;4.10;;;2.77;;
15295;SDS011;7749;49.964;7.890;2023-12-28T13:25:19;4.73;;;3.07;;
15295;SDS011;7749;49.964;7.890;2023-12-28T13:27:46;3.07;;;2.37;;
15295;SDS011;7749;49.964;7.890;2023-12-28T13:30:13;5.67;;;3.33;;
15295;SDS011;7749;49.964;7.890;2023-12-28T13:32:41;3.43;;;2.80;;
15295;SDS011;7749;49.964;7.890;2023-12-28T13:35:08;4.47;;;2.40;;
15295;SDS011;7749;49.964;7.890;2023-12-28T13:37:36;4.30;;;2.30;;
15295;SDS011;7749;49.964;7.890;2023-12-28T13:40:03;4.30;;;2.33;;
15295;SDS011;7749;49.964;7.890;2023-12-28T13:42:32;3.17;;;1.77;;
15295;SDS011;7749;49.964;7.890;2023-12-28T13:44:59;5.63;;;2.60;;
15295;SDS011;7749;49.964;7.890;2023-12-28T13:47:27;2.80;;;2.10;;
15295;SDS011;7749;49.964;7.890;2023-12-28T13:49:54;3.03;;;1.63;;
15295;SDS011;7749;49.964;7.890;2023-12-28T13:52:22;2.00;;;1.80;;
15295;SDS011;7749;49.964;7.890;2023-12-28T13:54:50;1.90;;;1.70;;
15295;SDS011;7749;49.964;7.890;2023-12-28T13:57:17;2.27;;;2.00;;
15295;SDS011;7749;49.964;7.890;2023-12-28T13:59:45;2.00;;;1.90;;
15295;SDS011;7749;49.964;7.890;2023-12-28T14:02:12;1.60;;;1.40;;
15295;SDS011;7749;49.964;7.890;2023-12-28T14:04:40;1.50;;;1.40;;
15295;SDS011;7749;49.964;7.890;2023-12-28T14:07:07;1.93;;;1.80;;
15295;SDS011;7749;49.964;7.890;2023-12-28T14:09:35;4.30;;;3.87;;
15295;SDS011;7749;49.964;7.890;2023-12-28T14:12:03;2.13;;;1.67;;
15295;SDS011;7749;49.964;7.890;2023-12-28T14:14:30;1.57;;;1.47;;
15295;SDS011;7749;49.964;7.890;2023-12-28T14:16:58;2.13;;;1.67;;
15295;SDS011;7749;49.964;7.890;2023-12-28T14:19:25;2.57;;;1.60;;
15295;SDS011;7749;49.964;7.890;2023-12-28T14:21:53;1.70;;;1.60;;
15295;SDS011;7749;49.964;7.890;2023-12-28T14:24:20;1.50;;;1.30;;
15295;SDS011;7749;49.964;7.890;2023-12-28T14:26:48;1.70;;;1.40;;
15295;SDS011;7749;49.964;7.890;2023-12-28T14:29:21;1.90;;;1.63;;
15295;SDS011;7749;49.964;7.890;2023-12-28T14:31:49;2.17;;;1.50;;
15295;SDS011;7749;49.964;7.890;2023-12-28T14:34:17;1.70;;;1.33;;
15295;SDS011;7749;49.964;7.890;2023-12-28T14:36:45;1.60;;;1.50;;
15295;SDS011;7749;49.964;7.890;2023-12-28T14:39:17;2.07;;;1.87;;
15295;SDS011;7749;49.964;7.890;2023-12-28T14:41:45;2.47;;;1.80;;
15295;SDS011;7749;49.964;7.890;2023-12-28T14:44:13;2.07;;;1.47;;
15295;SDS011;7749;49.964;7.890;2023-12-28T14:46:40;2.83;;;1.50;;
15295;SDS011;7749;49.964;7.890;2023-12-28T14:49:08;2.30;;;1.63;;
15295;SDS011;7749;49.964;7.890;2023-12-28T14:51:35;1.50;;;1.40;;
15295;SDS011;7749;49.964;7.890;2023-12-28T14:54:03;1.40;;;1.30;;
15295;SDS011;7749;49.964;7.890;2023-12-28T14:56:31;1.60;;;1.43;;
15295;SDS011;7749;49.964;7.890;2023-12-28T14:59:14;1.50;;;1.40;;
15295;SDS011;7749;49.964;7.890;2023-12-28T15:01:41;1.40;;;1.20;;
15295;SDS011;7749;49.964;7.890;2023-12-28T15:04:09;1.27;;;1.17;;
15295;SDS011;7749;49.964;7.890;2023-12-28T15:06:36;2.03;;;1.70;;